Flugplatz Nabern/Teck

Für EDTN sind keine METAR/TAF Berichte vorhanden.
Es werden die Flugwettermeldungen vom Flugplatz Stuttgart in 20 km Entfernung angezeigt.

Bericht für EDDS

vom 14.08. um 07:20 UTC

Wind 5 kt aus 250°

Sichtweite 10 km oder mehr

gering bewölkt in 4000 ft

Temperatur 21.0°C

Taupunkt 16.0°C

Luftfeuchtigkeit 73%

Luftdruck 1016 hPa

keine wesentliche Wetteränderung innerhalb den nächsten 2 Stunden zu erwarten

EDDS 140720Z 25005KT 210V270 9999 FEW040 21/16 Q1016 NOSIG

Prognose für EDDS

vom 14.08. um 05:00 UTC

Zwischen 06:00 UTC und 06:00 UTC

variable Windrichtung mit 3 kt

Sichtweite 10 km oder mehr

keine signifikanten Wettererscheinungen

keine Wolken


Zwischen 06:00 UTC und 12:00 UTC zeitweise

Wind 15 kt aus 210° in Böen 25 kt

Sichtweite 4000 m

Code: TSRA

aufgebrochene Bewölkung in 3000 ft


Zwischen 12:00 UTC und 18:00 UTC zeitweise mit einer Wahrscheinlichkeit von 40%

Code: TSRA

aufgebrochene Bewölkung in 4000 ft

TAF EDDS 140500Z 1406/1506 VRB03KT CAVOK TEMPO 1406/1412 21015G25KT 4000 TSRA BKN030CB PROB40 TEMPO 1412/1418 TSRA BKN040CB
Impressum